Time;durP1;ratioP1;P1;durP2;ratioP2;P2;SDS_P1;SDS_P2;PMS_P1;PMS_P2;Temp;Humidity;BMP_temperature;BMP_pressure;BME280_temperature;BME280_humidity;BME280_pressure;Samples;Min_cycle;Max_cycle;Signal;HPM_P1;HPM_P2
2023/12/31 00:01:35;;;;;;;2.15;1.70;;;8.10;99.90;;;;;;5029944;28;20415;-72
2023/12/31 00:04:02;;;;;;;2.30;1.83;;;8.10;99.90;;;;;;5032795;28;20976;-73
2023/12/31 00:06:29;;;;;;;2.72;2.10;;;8.00;99.90;;;;;;5029933;28;20783;-72
2023/12/31 00:08:56;;;;;;;2.45;2.00;;;8.00;99.90;;;;;;5030224;28;20785;-71
2023/12/31 00:11:22;;;;;;;3.70;2.25;;;8.00;99.90;;;;;;5040588;28;20418;-72
2023/12/31 00:13:49;;;;;;;2.60;2.03;;;8.00;99.90;;;;;;5034506;28;20797;-72
2023/12/31 00:16:16;;;;;;;2.83;2.50;;;8.00;99.90;;;;;;5038279;28;20422;-73
2023/12/31 00:18:44;;;;;;;2.70;2.50;;;7.90;99.90;;;;;;5041883;28;20413;-72
2023/12/31 00:21:11;;;;;;;3.27;2.27;;;7.90;99.90;;;;;;5033365;28;20905;-72
2023/12/31 00:23:38;;;;;;;3.00;2.20;;;7.90;99.90;;;;;;5034090;28;20411;-72
2023/12/31 00:26:04;;;;;;;3.45;2.55;;;7.90;99.90;;;;;;5028309;28;20525;-72
2023/12/31 00:28:31;;;;;;;2.53;2.33;;;7.90;99.90;;;;;;5037600;28;20413;-72
2023/12/31 00:30:58;;;;;;;3.20;2.60;;;8.00;99.90;;;;;;5035240;28;20456;-72
2023/12/31 00:33:24;;;;;;;2.72;2.53;;;8.00;99.90;;;;;;5031637;28;20434;-72
2023/12/31 00:35:52;;;;;;;2.53;2.30;;;8.00;99.90;;;;;;5029981;28;20957;-72
2023/12/31 00:38:19;;;;;;;4.13;2.88;;;8.00;99.90;;;;;;5031807;28;20441;-73
2023/12/31 00:40:46;;;;;;;3.60;2.75;;;8.00;99.90;;;;;;5031055;28;20449;-72
2023/12/31 00:43:12;;;;;;;3.47;2.60;;;8.10;99.90;;;;;;5033078;28;20411;-72
2023/12/31 00:45:39;;;;;;;3.47;2.72;;;8.10;99.90;;;;;;5030339;28;20414;-73
2023/12/31 00:48:07;;;;;;;3.20;2.63;;;8.10;99.90;;;;;;5029682;28;20422;-72
2023/12/31 00:50:34;;;;;;;2.85;2.40;;;8.10;99.90;;;;;;5037588;28;20478;-72
2023/12/31 00:53:02;;;;;;;2.80;2.50;;;8.20;99.90;;;;;;5036736;28;20844;-72
2023/12/31 00:55:29;;;;;;;3.10;2.60;;;8.30;99.90;;;;;;5029339;28;20457;-72
2023/12/31 00:57:56;;;;;;;3.00;2.40;;;8.40;99.90;;;;;;5038706;28;20415;-72
2023/12/31 01:00:23;;;;;;;3.00;2.47;;;8.40;99.90;;;;;;5030115;28;20421;-72
2023/12/31 01:02:49;;;;;;;2.70;2.35;;;8.50;99.90;;;;;;5031130;28;20464;-73
2023/12/31 01:05:16;;;;;;;2.90;2.60;;;8.50;99.90;;;;;;5032552;28;20446;-72
2023/12/31 01:07:43;;;;;;;2.80;2.60;;;8.60;99.90;;;;;;5032353;28;20419;-72
2023/12/31 01:10:11;;;;;;;3.00;2.70;;;8.60;99.90;;;;;;5028456;28;20971;-72
2023/12/31 01:12:39;;;;;;;4.07;3.28;;;8.50;99.90;;;;;;5039117;28;20605;-72
2023/12/31 01:15:06;;;;;;;3.25;2.70;;;8.50;99.90;;;;;;5035297;28;20796;-72
2023/12/31 01:17:33;;;;;;;3.20;2.60;;;8.50;99.90;;;;;;5033549;28;20438;-72
2023/12/31 01:20:00;;;;;;;3.00;2.67;;;8.50;99.90;;;;;;5028796;28;20419;-73
2023/12/31 01:22:26;;;;;;;3.53;2.95;;;8.50;99.90;;;;;;5037670;28;20798;-72
2023/12/31 01:24:53;;;;;;;3.53;2.67;;;8.50;99.90;;;;;;5029749;28;20418;-72
2023/12/31 01:27:21;;;;;;;2.67;2.30;;;8.50;99.90;;;;;;5030784;28;20411;-72
2023/12/31 01:29:48;;;;;;;3.57;2.40;;;8.50;99.90;;;;;;5031281;28;20492;-73
2023/12/31 01:32:14;;;;;;;2.67;2.47;;;8.40;99.90;;;;;;5031864;28;20411;-72
2023/12/31 01:34:41;;;;;;;2.42;2.10;;;8.40;99.90;;;;;;5030479;28;20905;-72
2023/12/31 01:37:08;;;;;;;3.10;2.40;;;8.40;99.90;;;;;;5027986;28;20419;-72
2023/12/31 01:39:35;;;;;;;3.08;2.13;;;8.40;99.90;;;;;;5037129;28;20420;-73
2023/12/31 01:42:01;;;;;;;3.00;2.70;;;8.40;99.90;;;;;;5029770;28;20439;-72
2023/12/31 01:44:30;;;;;;;2.65;2.45;;;8.40;99.90;;;;;;5034046;28;20450;-72
2023/12/31 01:46:57;;;;;;;3.90;2.10;;;8.40;99.90;;;;;;5032757;28;20413;-73
2023/12/31 01:49:24;;;;;;;3.17;2.70;;;8.40;99.90;;;;;;5034727;28;20426;-72
2023/12/31 01:51:51;;;;;;;2.85;2.55;;;8.30;99.90;;;;;;5030217;28;20779;-72
2023/12/31 01:54:19;;;;;;;2.80;2.47;;;8.30;99.90;;;;;;5030309;28;20454;-72
2023/12/31 01:56:47;;;;;;;2.90;2.60;;;8.30;99.90;;;;;;5030544;28;20438;-73
2023/12/31 01:59:14;;;;;;;2.80;2.50;;;8.30;99.90;;;;;;5033143;28;20821;-73
2023/12/31 02:01:43;;;;;;;3.10;2.80;;;8.30;99.90;;;;;;5035301;28;20415;-72
2023/12/31 02:04:10;;;;;;;3.07;2.77;;;8.30;99.90;;;;;;5032649;28;20457;-73
2023/12/31 02:06:37;;;;;;;3.55;2.83;;;8.30;99.90;;;;;;5030808;28;20424;-72
2023/12/31 02:09:06;;;;;;;3.60;2.92;;;8.30;99.90;;;;;;5033395;28;20914;-73
2023/12/31 02:11:34;;;;;;;3.30;2.70;;;8.30;99.90;;;;;;5029976;28;20813;-72
2023/12/31 02:14:01;;;;;;;3.25;2.80;;;8.30;99.90;;;;;;5058114;22;20562;-64
2023/12/31 02:16:28;;;;;;;3.20;2.90;;;8.30;99.90;;;;;;5044929;28;20776;-64
2023/12/31 02:18:56;;;;;;;3.20;2.90;;;8.40;99.90;;;;;;5041093;28;20430;-65
2023/12/31 02:21:23;;;;;;;3.00;2.70;;;8.30;99.90;;;;;;5051505;28;20409;-64
2023/12/31 02:23:50;;;;;;;3.45;3.15;;;8.40;99.90;;;;;;5033870;28;20417;-64
2023/12/31 02:26:18;;;;;;;3.28;2.97;;;8.40;99.90;;;;;;5031134;28;20442;-65
2023/12/31 02:28:45;;;;;;;4.35;3.40;;;8.40;99.90;;;;;;5029317;28;20440;-64
2023/12/31 02:31:12;;;;;;;3.00;2.50;;;8.30;99.90;;;;;;5033048;28;20811;-65
2023/12/31 02:33:38;;;;;;;3.40;3.00;;;8.40;99.90;;;;;;5035332;28;20429;-64
2023/12/31 02:36:06;;;;;;;2.70;2.47;;;8.40;99.90;;;;;;5029023;28;20897;-64
2023/12/31 02:38:33;;;;;;;3.40;2.80;;;8.40;99.90;;;;;;5023829;28;20419;-64
2023/12/31 02:40:59;;;;;;;3.30;2.70;;;8.40;99.90;;;;;;5025485;28;20900;-64
2023/12/31 02:43:27;;;;;;;2.70;2.50;;;8.40;99.90;;;;;;5038769;28;20424;-64
2023/12/31 02:45:54;;;;;;;3.40;2.92;;;8.40;99.90;;;;;;5026772;28;20899;-64
2023/12/31 02:48:21;;;;;;;3.25;2.90;;;8.40;99.90;;;;;;5035396;28;20435;-64
2023/12/31 02:50:48;;;;;;;3.22;2.92;;;8.40;99.90;;;;;;5037345;28;20420;-67
2023/12/31 02:53:15;;;;;;;2.58;2.10;;;8.40;99.90;;;;;;5022831;28;20413;-64
2023/12/31 02:55:41;;;;;;;3.10;2.55;;;8.40;99.90;;;;;;5035694;28;20465;-65
2023/12/31 02:58:08;;;;;;;2.60;2.30;;;8.50;99.90;;;;;;5033945;28;20562;-65
2023/12/31 03:00:36;;;;;;;3.30;2.40;;;8.50;99.90;;;;;;5029781;28;20430;-65
2023/12/31 03:03:03;;;;;;;3.90;3.10;;;8.50;99.90;;;;;;5033322;28;20431;-64
2023/12/31 03:05:30;;;;;;;2.50;2.30;;;8.50;99.90;;;;;;5025353;28;20424;-65
2023/12/31 03:07:57;;;;;;;2.77;2.57;;;8.60;99.90;;;;;;5032767;28;20512;-65
2023/12/31 03:10:23;;;;;;;2.60;2.40;;;8.60;99.90;;;;;;5022430;28;20431;-65
2023/12/31 03:12:50;;;;;;;3.10;2.40;;;8.60;99.90;;;;;;5030295;28;20431;-65
2023/12/31 03:15:17;;;;;;;3.00;2.47;;;8.60;99.90;;;;;;5033235;28;20429;-65
2023/12/31 03:17:45;;;;;;;3.88;2.50;;;8.60;99.90;;;;;;5028090;28;20416;-66
2023/12/31 03:20:12;;;;;;;2.70;2.30;;;8.60;99.90;;;;;;5024216;28;20790;-65
2023/12/31 03:22:39;;;;;;;3.50;2.60;;;8.70;99.90;;;;;;5036721;28;20533;-65
2023/12/31 03:25:06;;;;;;;3.50;2.55;;;8.60;99.90;;;;;;5028256;28;20514;-65
2023/12/31 03:27:33;;;;;;;3.10;2.50;;;8.60;99.90;;;;;;5027214;28;20415;-65
2023/12/31 03:29:59;;;;;;;3.40;2.38;;;8.60;99.90;;;;;;5025343;28;20433;-65
2023/12/31 03:32:26;;;;;;;3.10;2.40;;;8.60;99.90;;;;;;5025894;28;20415;-65
2023/12/31 03:34:54;;;;;;;2.70;2.15;;;8.60;99.90;;;;;;5028083;28;20434;-65
2023/12/31 03:37:21;;;;;;;3.53;2.50;;;8.60;99.90;;;;;;5030157;28;20870;-65
2023/12/31 03:39:50;;;;;;;2.47;2.28;;;8.60;99.90;;;;;;5032039;28;20942;-65
2023/12/31 03:42:17;;;;;;;4.30;2.40;;;8.60;99.90;;;;;;5031035;28;20423;-63
2023/12/31 03:44:43;;;;;;;2.80;2.60;;;8.60;99.90;;;;;;5023565;28;20430;-65
2023/12/31 03:47:10;;;;;;;3.00;2.30;;;8.60;99.90;;;;;;5019602;28;20407;-65
2023/12/31 03:49:37;;;;;;;3.60;2.30;;;8.60;99.90;;;;;;5037505;28;20447;-65
2023/12/31 03:52:06;;;;;;;2.25;2.05;;;8.60;99.90;;;;;;5030592;28;20425;-65
2023/12/31 03:54:33;;;;;;;3.70;2.53;;;8.50;99.90;;;;;;5032996;28;20564;-65
2023/12/31 03:56:59;;;;;;;2.80;2.50;;;8.50;99.90;;;;;;5027188;28;20440;-63
2023/12/31 03:59:26;;;;;;;3.72;2.35;;;8.50;99.90;;;;;;5028794;28;20415;-65
2023/12/31 04:01:56;;;;;;;2.60;2.25;;;8.50;99.90;;;;;;5033365;28;20421;-65
2023/12/31 04:04:25;;;;;;;2.30;2.10;;;8.50;99.90;;;;;;5033525;28;20460;-64
2023/12/31 04:06:52;;;;;;;3.00;2.00;;;8.50;99.90;;;;;;5031611;28;20793;-63
2023/12/31 04:09:20;;;;;;;2.60;2.00;;;8.50;99.90;;;;;;5024745;28;20439;-64
2023/12/31 04:11:46;;;;;;;2.50;2.20;;;8.50;99.90;;;;;;5026514;28;20840;-65
2023/12/31 04:14:12;;;;;;;3.45;2.15;;;8.50;99.90;;;;;;5036053;28;20882;-65
2023/12/31 04:16:39;;;;;;;2.50;2.00;;;8.60;99.90;;;;;;5036293;28;20423;-65
2023/12/31 04:19:06;;;;;;;1.93;1.63;;;8.50;99.90;;;;;;5023262;28;20415;-64
2023/12/31 04:21:32;;;;;;;2.40;1.70;;;8.60;99.90;;;;;;5029889;28;20415;-63
2023/12/31 04:23:59;;;;;;;2.60;1.70;;;8.60;99.90;;;;;;5024751;28;20435;-64
2023/12/31 04:26:27;;;;;;;2.70;2.10;;;8.60;99.90;;;;;;5034902;28;20407;-64
2023/12/31 04:28:54;;;;;;;2.70;2.00;;;8.60;99.90;;;;;;5026253;28;20789;-63
2023/12/31 04:31:21;;;;;;;2.20;1.90;;;8.50;99.90;;;;;;5031035;28;20440;-65
2023/12/31 04:33:48;;;;;;;2.28;1.90;;;8.50;99.90;;;;;;5031006;28;20488;-63
2023/12/31 04:36:14;;;;;;;2.67;1.90;;;8.50;99.90;;;;;;5028849;28;20435;-63
2023/12/31 04:38:41;;;;;;;2.57;2.00;;;8.50;99.90;;;;;;5032867;28;20974;-65
2023/12/31 04:41:08;;;;;;;2.13;1.93;;;8.50;99.90;;;;;;5023470;28;20435;-65
2023/12/31 04:43:36;;;;;;;2.05;1.65;;;8.50;99.90;;;;;;5022652;28;20415;-66
2023/12/31 04:46:05;;;;;;;2.53;2.20;;;8.50;99.90;;;;;;5022674;28;20418;-63
2023/12/31 04:48:32;;;;;;;2.35;1.80;;;8.50;99.90;;;;;;5037357;28;20412;-63
2023/12/31 04:50:59;;;;;;;2.60;2.13;;;8.50;99.90;;;;;;5024522;28;20766;-69
2023/12/31 04:53:26;;;;;;;2.05;1.85;;;8.50;99.90;;;;;;5030815;28;20437;-65
2023/12/31 04:55:52;;;;;;;2.10;1.90;;;8.50;99.90;;;;;;5041142;28;20430;-63
2023/12/31 04:58:19;;;;;;;2.80;1.80;;;8.50;99.90;;;;;;5051498;28;20413;-63
2023/12/31 05:00:47;;;;;;;2.63;1.73;;;8.50;99.90;;;;;;5041603;28;20804;-63
2023/12/31 05:03:14;;;;;;;2.28;1.70;;;8.50;99.90;;;;;;5044387;28;20418;-64
2023/12/31 05:05:41;;;;;;;2.10;1.60;;;8.50;99.90;;;;;;5038431;28;20446;-63
2023/12/31 05:08:08;;;;;;;2.90;2.00;;;8.50;99.90;;;;;;5034772;28;20441;-65
2023/12/31 05:10:34;;;;;;;3.30;2.30;;;8.40;99.90;;;;;;5035465;28;20434;-64
2023/12/31 05:13:04;;;;;;;3.05;1.63;;;8.40;99.90;;;;;;5032576;28;20417;-66
2023/12/31 05:15:31;;;;;;;2.25;1.90;;;8.40;99.90;;;;;;5024244;28;20866;-63
2023/12/31 05:17:59;;;;;;;2.70;1.80;;;8.40;99.90;;;;;;5024130;28;20598;-65
2023/12/31 05:20:26;;;;;;;2.50;2.17;;;8.40;99.90;;;;;;5029244;28;20554;-63
2023/12/31 05:22:53;;;;;;;2.80;1.70;;;8.50;99.90;;;;;;5025333;28;20419;-63
2023/12/31 05:25:19;;;;;;;2.53;1.92;;;8.50;99.90;;;;;;5030977;28;20428;-63
2023/12/31 05:27:46;;;;;;;2.10;1.70;;;8.50;99.90;;;;;;5029214;28;20422;-63
2023/12/31 05:30:14;;;;;;;2.05;1.60;;;8.50;99.90;;;;;;5025064;28;20526;-63
2023/12/31 05:32:41;;;;;;;2.60;1.80;;;8.50;99.90;;;;;;5025892;28;20445;-65
2023/12/31 05:35:10;;;;;;;2.50;1.70;;;8.60;99.90;;;;;;5025753;28;20423;-64
2023/12/31 05:37:37;;;;;;;2.33;1.60;;;8.60;99.90;;;;;;5024993;28;20411;-63
2023/12/31 05:40:05;;;;;;;1.70;1.40;;;8.70;99.90;;;;;;5027706;28;20415;-63
2023/12/31 05:42:32;;;;;;;2.05;1.60;;;8.60;99.90;;;;;;5027441;28;20419;-63
2023/12/31 05:44:58;;;;;;;2.60;1.73;;;8.70;99.90;;;;;;5024477;28;20495;-63
2023/12/31 05:47:25;;;;;;;2.10;1.50;;;8.70;99.90;;;;;;5024419;28;20411;-65
2023/12/31 05:49:52;;;;;;;1.90;1.60;;;8.70;99.90;;;;;;5029958;28;20425;-63
2023/12/31 05:52:20;;;;;;;2.10;1.60;;;8.70;99.90;;;;;;5028452;28;20470;-62
2023/12/31 05:54:47;;;;;;;2.17;1.50;;;8.70;99.90;;;;;;5030433;28;20468;-64
2023/12/31 05:57:13;;;;;;;2.70;1.67;;;8.80;99.90;;;;;;5023403;28;20805;-64
2023/12/31 05:59:40;;;;;;;2.10;1.57;;;8.80;99.90;;;;;;5022469;28;20436;-64
2023/12/31 06:02:07;;;;;;;2.73;1.87;;;8.80;99.90;;;;;;5023358;28;20762;-64
2023/12/31 06:04:34;;;;;;;2.20;1.65;;;8.80;99.90;;;;;;5016372;28;20864;-62
2023/12/31 06:07:01;;;;;;;2.20;1.80;;;8.80;99.90;;;;;;5018361;28;20430;-63
2023/12/31 06:09:29;;;;;;;2.75;1.67;;;8.80;99.90;;;;;;5024189;28;20458;-63
2023/12/31 06:11:55;;;;;;;1.75;1.33;;;8.80;99.90;;;;;;5026171;28;20434;-62
2023/12/31 06:14:22;;;;;;;1.95;1.70;;;8.80;99.90;;;;;;5025476;28;20862;-63
2023/12/31 06:16:49;;;;;;;2.22;1.30;;;8.80;99.90;;;;;;5025094;28;20447;-63
2023/12/31 06:19:16;;;;;;;2.42;1.95;;;8.80;99.90;;;;;;5027862;28;20949;-64
2023/12/31 06:21:42;;;;;;;2.15;1.30;;;8.80;99.90;;;;;;5021780;28;20427;-65
2023/12/31 06:24:09;;;;;;;1.80;1.60;;;8.90;99.90;;;;;;5023998;28;20542;-65
2023/12/31 06:26:37;;;;;;;1.55;1.20;;;8.90;99.90;;;;;;5023991;28;20430;-66
2023/12/31 06:29:04;;;;;;;2.38;1.48;;;8.90;99.90;;;;;;5026496;28;20509;-64
2023/12/31 06:31:31;;;;;;;1.80;1.40;;;8.90;99.90;;;;;;5021518;28;20427;-64
2023/12/31 06:33:57;;;;;;;1.80;1.60;;;9.00;99.90;;;;;;5022148;28;20941;-63
2023/12/31 06:36:24;;;;;;;2.60;1.50;;;9.00;99.90;;;;;;5020959;28;20430;-64
2023/12/31 06:38:51;;;;;;;1.75;1.50;;;9.00;99.90;;;;;;5018699;28;20431;-64
2023/12/31 06:41:19;;;;;;;1.95;1.60;;;9.00;99.90;;;;;;5023821;28;20420;-64
2023/12/31 06:43:47;;;;;;;2.33;1.60;;;9.00;99.90;;;;;;5029764;28;20972;-64
2023/12/31 06:46:14;;;;;;;3.60;1.60;;;9.10;99.90;;;;;;5019689;28;20457;-64
2023/12/31 06:48:41;;;;;;;2.20;1.70;;;9.10;99.90;;;;;;5021342;28;20446;-64
2023/12/31 06:51:08;;;;;;;2.00;1.30;;;9.00;99.90;;;;;;5024083;28;20465;-64
2023/12/31 06:53:35;;;;;;;2.47;1.50;;;9.00;99.90;;;;;;5026114;28;20531;-64
2023/12/31 06:56:04;;;;;;;2.40;1.48;;;9.10;99.90;;;;;;5031939;28;20431;-64
2023/12/31 06:58:31;;;;;;;1.90;1.48;;;9.00;99.90;;;;;;5028209;28;20548;-65
2023/12/31 07:00:59;;;;;;;1.75;1.58;;;9.10;99.90;;;;;;5026794;28;20449;-65
2023/12/31 07:03:26;;;;;;;2.10;1.60;;;9.10;99.90;;;;;;5023847;28;20495;-64
2023/12/31 07:05:52;;;;;;;2.35;1.60;;;9.10;99.90;;;;;;5020530;28;20541;-64
2023/12/31 07:08:19;;;;;;;1.80;1.48;;;9.00;99.90;;;;;;5024335;28;20429;-64
2023/12/31 07:10:46;;;;;;;2.43;1.40;;;9.10;99.90;;;;;;5026465;28;20423;-64
2023/12/31 07:13:14;;;;;;;1.50;1.38;;;9.10;99.90;;;;;;5030738;28;20435;-64
2023/12/31 07:15:43;;;;;;;2.00;1.80;;;9.10;99.90;;;;;;5026149;28;20569;-64
2023/12/31 07:18:11;;;;;;;2.15;1.60;;;9.10;99.90;;;;;;5027963;28;20466;-64
2023/12/31 07:20:38;;;;;;;2.05;1.50;;;9.10;99.90;;;;;;5020651;28;20443;-64
2023/12/31 07:23:05;;;;;;;3.70;1.60;;;9.10;99.90;;;;;;5018084;28;20442;-64
2023/12/31 07:25:32;;;;;;;1.83;1.50;;;9.10;99.90;;;;;;5030664;28;20415;-64
2023/12/31 07:27:59;;;;;;;1.40;1.27;;;9.00;99.90;;;;;;5025018;28;20807;-65
2023/12/31 07:30:26;;;;;;;1.45;1.27;;;9.00;99.90;;;;;;5024768;28;20441;-64
2023/12/31 07:32:53;;;;;;;2.03;1.50;;;8.90;99.90;;;;;;5025929;28;20435;-64
2023/12/31 07:35:21;;;;;;;1.67;1.50;;;8.90;99.90;;;;;;5021534;28;20435;-64
2023/12/31 07:37:47;;;;;;;3.00;1.90;;;8.90;99.90;;;;;;5022525;28;20443;-64
2023/12/31 07:40:14;;;;;;;2.00;1.40;;;8.80;99.90;;;;;;5019774;28;20585;-63
2023/12/31 07:42:42;;;;;;;1.92;1.52;;;8.80;99.90;;;;;;5021304;28;20868;-63
2023/12/31 07:45:09;;;;;;;1.70;1.60;;;8.80;99.90;;;;;;5025167;28;20441;-64
2023/12/31 07:47:38;;;;;;;1.88;1.70;;;8.80;99.90;;;;;;5023380;28;20426;-64
2023/12/31 07:50:06;;;;;;;2.85;1.70;;;8.90;99.90;;;;;;5019690;28;20435;-64
2023/12/31 07:52:34;;;;;;;1.83;1.50;;;8.90;99.90;;;;;;5019378;28;20539;-65
2023/12/31 07:55:01;;;;;;;1.90;1.60;;;8.90;99.90;;;;;;5020349;28;20513;-63
2023/12/31 07:57:28;;;;;;;3.30;1.60;;;8.90;99.90;;;;;;5020814;28;20893;-64
2023/12/31 07:59:54;;;;;;;2.92;2.00;;;8.90;99.90;;;;;;5029198;28;20435;-64
2023/12/31 08:02:22;;;;;;;2.20;1.60;;;8.90;99.90;;;;;;5021275;28;20613;-64
2023/12/31 08:04:48;;;;;;;1.83;1.63;;;8.90;99.90;;;;;;5021399;28;20526;-64
2023/12/31 08:07:15;;;;;;;2.00;1.50;;;9.00;99.90;;;;;;5022630;28;20458;-64
2023/12/31 08:09:43;;;;;;;1.80;1.50;;;9.00;99.90;;;;;;5022182;28;20434;-63
2023/12/31 08:12:10;;;;;;;2.60;1.80;;;9.10;99.90;;;;;;5018915;28;20886;-64
2023/12/31 08:14:36;;;;;;;2.30;1.40;;;9.10;99.90;;;;;;5014131;28;20438;-64
2023/12/31 08:17:03;;;;;;;1.77;1.40;;;9.10;99.90;;;;;;5014082;28;20442;-64
2023/12/31 08:19:30;;;;;;;2.10;1.80;;;9.10;99.90;;;;;;5020949;28;20439;-64
2023/12/31 08:21:57;;;;;;;2.50;1.77;;;9.10;99.90;;;;;;5020102;28;20794;-64
2023/12/31 08:24:24;;;;;;;3.13;1.63;;;9.10;99.90;;;;;;5017718;28;20446;-65
2023/12/31 08:26:52;;;;;;;2.50;1.80;;;9.20;99.90;;;;;;5018324;28;20944;-64
2023/12/31 08:29:19;;;;;;;2.30;1.50;;;9.20;99.90;;;;;;5029965;28;20438;-64
2023/12/31 08:31:49;;;;;;;2.50;1.65;;;9.30;99.90;;;;;;5029738;28;20437;-64
2023/12/31 08:34:16;;;;;;;2.42;1.80;;;9.30;99.90;;;;;;5038022;23;20439;-70
2023/12/31 08:36:42;;;;;;;1.77;1.40;;;9.30;99.90;;;;;;5025759;28;20438;-71
2023/12/31 08:39:10;;;;;;;2.70;1.80;;;9.40;99.90;;;;;;5019596;28;20434;-71
2023/12/31 08:41:36;;;;;;;1.98;1.60;;;9.40;99.90;;;;;;5033169;28;21004;-72
2023/12/31 08:44:05;;;;;;;1.90;1.70;;;9.50;99.90;;;;;;5037186;28;20445;-71
2023/12/31 08:46:32;;;;;;;2.00;1.60;;;9.50;99.90;;;;;;5027184;28;20426;-71
2023/12/31 08:48:58;;;;;;;2.20;2.00;;;9.60;99.90;;;;;;5030323;28;20415;-71
2023/12/31 08:51:26;;;;;;;1.92;1.65;;;9.60;99.90;;;;;;5027996;28;20425;-72
2023/12/31 08:53:52;;;;;;;1.88;1.67;;;9.70;99.90;;;;;;5026225;28;20955;-71
2023/12/31 08:56:19;;;;;;;3.00;1.80;;;9.70;99.90;;;;;;5030984;28;20430;-72
2023/12/31 08:58:46;;;;;;;2.80;1.80;;;9.70;99.90;;;;;;5029549;28;20457;-72
2023/12/31 09:01:14;;;;;;;2.72;1.80;;;9.70;99.90;;;;;;5026407;28;20416;-71
2023/12/31 09:03:41;;;;;;;2.40;2.00;;;9.70;99.90;;;;;;5030964;28;20434;-71
2023/12/31 09:06:10;;;;;;;2.58;1.70;;;9.70;99.90;;;;;;5025675;28;20450;-71
2023/12/31 09:08:37;;;;;;;2.67;2.05;;;9.80;99.90;;;;;;5032573;28;20442;-71
2023/12/31 09:11:04;;;;;;;2.53;2.00;;;9.80;99.90;;;;;;5029041;28;20485;-70
2023/12/31 09:13:31;;;;;;;2.30;2.10;;;9.80;99.90;;;;;;5027620;28;20955;-72
2023/12/31 09:15:57;;;;;;;2.50;2.30;;;9.80;99.90;;;;;;5027330;28;20708;-72
2023/12/31 09:18:25;;;;;;;3.10;2.40;;;9.90;99.90;;;;;;5024441;28;20433;-72
2023/12/31 09:20:52;;;;;;;2.40;2.20;;;9.90;99.90;;;;;;5028895;28;20924;-71
2023/12/31 09:23:19;;;;;;;2.60;2.00;;;9.90;99.90;;;;;;5027131;28;20438;-71
2023/12/31 09:25:45;;;;;;;2.90;2.00;;;10.00;99.90;;;;;;5029054;28;20521;-71
2023/12/31 09:28:12;;;;;;;2.40;2.20;;;10.00;99.90;;;;;;5027369;28;20427;-71
2023/12/31 09:30:39;;;;;;;3.00;2.60;;;10.00;99.90;;;;;;5031558;28;20917;-72
2023/12/31 09:33:05;;;;;;;2.80;2.50;;;10.00;99.90;;;;;;5028963;28;20508;-73
2023/12/31 09:35:34;;;;;;;2.97;2.67;;;10.00;99.90;;;;;;5028088;28;20798;-72
2023/12/31 09:38:02;;;;;;;2.80;2.40;;;10.00;99.90;;;;;;5030110;28;20430;-72
2023/12/31 09:40:29;;;;;;;2.70;2.40;;;10.10;99.90;;;;;;5027030;28;20431;-71
2023/12/31 09:42:56;;;;;;;3.10;2.30;;;10.10;99.90;;;;;;5028517;28;20423;-72
2023/12/31 09:45:25;;;;;;;3.70;3.00;;;10.20;99.90;;;;;;5022984;28;20431;-72
2023/12/31 09:47:53;;;;;;;2.80;2.50;;;10.20;99.90;;;;;;5024639;28;20435;-72
2023/12/31 09:50:21;;;;;;;2.97;2.25;;;10.20;99.90;;;;;;5026941;28;20501;-72
2023/12/31 09:52:50;;;;;;;2.70;2.50;;;10.20;99.90;;;;;;5028584;28;20435;-71
2023/12/31 09:55:19;;;;;;;2.50;2.30;;;10.20;99.90;;;;;;5024586;28;20449;-71
2023/12/31 09:57:47;;;;;;;4.18;2.80;;;10.20;99.90;;;;;;5020843;28;20460;-71
2023/12/31 10:00:14;;;;;;;3.05;2.67;;;10.30;99.90;;;;;;5029032;28;20944;-72
2023/12/31 10:02:43;;;;;;;2.70;2.50;;;10.30;99.90;;;;;;5033728;28;20440;-71
2023/12/31 10:05:11;;;;;;;3.20;2.90;;;10.30;99.90;;;;;;5031896;28;20903;-71
2023/12/31 10:07:38;;;;;;;3.70;2.80;;;10.30;99.90;;;;;;5026976;28;20431;-71
2023/12/31 10:10:08;;;;;;;3.40;2.90;;;10.40;99.90;;;;;;5024550;28;20525;-71
2023/12/31 10:12:34;;;;;;;3.33;2.80;;;10.50;99.90;;;;;;5025499;28;20444;-71
2023/12/31 10:15:01;;;;;;;2.85;2.50;;;10.60;99.90;;;;;;5028935;28;20438;-71
2023/12/31 10:17:29;;;;;;;2.50;2.30;;;10.80;99.90;;;;;;5028211;28;20787;-71
2023/12/31 10:19:57;;;;;;;2.70;2.50;;;10.90;99.90;;;;;;5019102;28;20434;-71
2023/12/31 10:22:25;;;;;;;2.80;2.20;;;11.00;99.90;;;;;;5028693;28;20838;-70
2023/12/31 10:24:52;;;;;;;2.80;2.10;;;11.00;99.90;;;;;;5025476;28;20438;-70
2023/12/31 10:27:21;;;;;;;2.65;2.10;;;11.00;99.90;;;;;;5026902;28;20434;-71
2023/12/31 10:29:47;;;;;;;1.90;1.40;;;11.00;99.90;;;;;;5022957;28;20459;-70
2023/12/31 10:32:14;;;;;;;1.30;1.10;;;11.00;99.90;;;;;;5027370;28;20441;-71
2023/12/31 10:34:41;;;;;;;1.80;1.00;;;11.00;99.90;;;;;;5028786;28;20442;-71
2023/12/31 10:37:08;;;;;;;1.40;1.00;;;11.00;99.90;;;;;;5027907;28;20945;-71
2023/12/31 10:39:36;;;;;;;1.90;1.13;;;11.00;99.90;;;;;;5031621;28;20492;-72
2023/12/31 10:42:04;;;;;;;1.73;1.40;;;11.00;99.90;;;;;;5026306;28;20458;-72
2023/12/31 10:44:35;;;;;;;2.40;0.80;;;11.00;99.90;;;;;;5024629;28;20783;-72
2023/12/31 10:47:05;;;;;;;1.67;0.90;;;10.90;99.90;;;;;;5026776;28;20411;-72
2023/12/31 10:49:33;;;;;;;1.70;0.70;;;10.90;99.90;;;;;;5026437;28;20489;-72
2023/12/31 10:52:02;;;;;;;1.20;0.80;;;10.90;99.90;;;;;;5026261;28;20443;-72
2023/12/31 10:54:37;;;;;;;1.60;0.70;;;10.80;99.90;;;;;;5028129;28;20834;-72
2023/12/31 10:57:07;;;;;;;1.50;0.60;;;10.80;99.80;;;;;;5026134;28;20532;-72
2023/12/31 10:59:36;;;;;;;1.07;0.60;;;10.70;99.20;;;;;;5028846;28;20430;-72
2023/12/31 11:02:04;;;;;;;2.03;0.70;;;10.60;99.60;;;;;;5033406;28;20434;-67
2023/12/31 11:04:32;;;;;;;1.33;0.70;;;10.70;99.90;;;;;;5033141;28;20468;-70
2023/12/31 11:07:00;;;;;;;1.33;0.50;;;10.90;99.90;;;;;;5024496;28;20439;-70
2023/12/31 11:09:29;;;;;;;2.55;0.60;;;10.90;99.90;;;;;;5023582;28;20525;-72
2023/12/31 11:11:55;;;;;;;1.10;0.50;;;10.80;99.10;;;;;;5024994;28;20663;-70
2023/12/31 11:14:28;;;;;;;1.20;0.50;;;10.70;99.10;;;;;;5026331;28;20441;-70
2023/12/31 11:17:06;;;;;;;1.40;0.70;;;10.70;99.80;;;;;;5023967;28;20422;-70
2023/12/31 11:20:11;;;;;;;1.38;0.60;;;10.60;99.90;;;;;;5028917;28;20440;-70
2023/12/31 11:22:54;;;;;;;1.40;0.53;;;10.60;99.90;;;;;;4968389;28;20610;-70
2023/12/31 11:25:21;;;;;;;1.60;0.60;;;10.50;99.90;;;;;;5021969;28;20446;-71
2023/12/31 11:27:50;;;;;;;1.60;0.55;;;10.50;99.90;;;;;;5027284;28;20429;-71
2023/12/31 11:30:48;;;;;;;2.00;0.70;;;10.50;99.90;;;;;;5027238;28;20442;-71
2023/12/31 11:33:17;;;;;;;1.30;0.40;;;10.40;99.90;;;;;;5030096;28;20426;-72
2023/12/31 11:35:45;;;;;;;1.10;0.40;;;10.40;99.90;;;;;;5023582;28;20408;-71
2023/12/31 11:38:12;;;;;;;1.60;0.60;;;10.40;99.90;;;;;;5026676;28;20425;-71
2023/12/31 11:40:38;;;;;;;1.27;0.50;;;10.40;99.90;;;;;;5023966;28;20438;-75
2023/12/31 11:43:14;;;;;;;1.00;0.50;;;10.40;99.90;;;;;;5031028;28;20446;-71
2023/12/31 11:45:42;;;;;;;1.40;0.57;;;10.40;99.90;;;;;;5024422;28;20489;-72
2023/12/31 11:48:28;;;;;;;0.90;0.50;;;10.40;99.90;;;;;;5029930;28;20437;-71
2023/12/31 11:50:57;;;;;;;1.00;0.60;;;10.40;99.90;;;;;;5024331;28;20494;-72
2023/12/31 11:53:26;;;;;;;1.17;0.50;;;10.40;99.90;;;;;;5029057;28;20461;-72
2023/12/31 11:55:58;;;;;;;1.00;0.40;;;10.40;99.90;;;;;;5028170;28;20438;-72
2023/12/31 11:58:27;;;;;;;0.93;0.40;;;10.40;99.90;;;;;;5027318;28;20945;-71
2023/12/31 12:00:54;;;;;;;1.20;0.40;;;10.40;99.90;;;;;;5027608;28;20512;-72
2023/12/31 12:03:21;;;;;;;0.93;0.45;;;10.40;99.90;;;;;;5023235;28;20853;-72
2023/12/31 12:05:50;;;;;;;1.10;0.40;;;10.40;99.90;;;;;;5027750;28;20425;-73
2023/12/31 12:08:17;;;;;;;1.00;0.40;;;10.40;99.90;;;;;;5024968;28;20430;-72
2023/12/31 12:10:44;;;;;;;1.38;0.52;;;10.30;99.90;;;;;;5024116;28;20450;-71
2023/12/31 12:13:12;;;;;;;0.98;0.57;;;10.30;99.90;;;;;;5023464;28;20434;-72
2023/12/31 12:15:39;;;;;;;1.02;0.50;;;10.30;99.90;;;;;;5025201;28;20539;-72
2023/12/31 12:18:18;;;;;;;1.00;0.50;;;10.40;99.90;;;;;;5025932;28;20430;-72
2023/12/31 12:20:46;;;;;;;1.30;0.40;;;10.40;99.90;;;;;;5021181;28;20411;-72
2023/12/31 12:23:17;;;;;;;1.10;0.40;;;10.40;99.90;;;;;;5019537;28;20931;-71
2023/12/31 12:25:44;;;;;;;0.85;0.40;;;10.40;99.90;;;;;;5029969;28;20434;-71
2023/12/31 12:28:11;;;;;;;2.80;0.80;;;10.40;99.90;;;;;;5023024;28;20444;-67
2023/12/31 12:30:40;;;;;;;2.10;0.68;;;10.40;99.90;;;;;;5025740;28;20441;-72
2023/12/31 12:33:07;;;;;;;0.90;0.50;;;10.60;99.90;;;;;;5029548;28;20443;-72
2023/12/31 12:35:37;;;;;;;0.82;0.40;;;10.60;99.90;;;;;;5024624;28;20433;-72
2023/12/31 12:38:04;;;;;;;1.30;0.55;;;10.60;99.90;;;;;;5023817;28;20437;-71
2023/12/31 12:40:33;;;;;;;1.20;0.57;;;10.60;99.90;;;;;;5022260;28;20844;-72
2023/12/31 12:43:02;;;;;;;1.50;0.50;;;10.40;99.90;;;;;;5027187;28;20435;-71
2023/12/31 12:45:29;;;;;;;1.70;0.50;;;10.40;99.60;;;;;;5021619;28;20484;-72
2023/12/31 12:47:59;;;;;;;2.63;0.60;;;10.40;99.90;;;;;;5029945;28;20777;-72
2023/12/31 12:50:26;;;;;;;1.00;0.70;;;10.40;99.90;;;;;;5025921;28;20987;-72
2023/12/31 12:52:53;;;;;;;1.30;0.50;;;10.40;99.90;;;;;;5030570;28;20435;-71
2023/12/31 12:55:20;;;;;;;1.10;0.50;;;10.50;99.90;;;;;;5027138;28;20447;-71
2023/12/31 12:57:49;;;;;;;1.67;0.50;;;10.60;99.90;;;;;;5026270;28;20454;-72